createdAt,value
2019-05-12T00:00:40.477Z,853.06
2019-05-12T00:01:40.462Z,853.03
2019-05-12T00:02:40.478Z,853.00
2019-05-12T00:03:40.445Z,853.02
2019-05-12T00:04:40.464Z,852.95
2019-05-12T00:05:40.503Z,853.01
2019-05-12T00:06:40.404Z,853.07
2019-05-12T00:07:40.393Z,853.06
2019-05-12T00:08:40.422Z,853.03
2019-05-12T00:09:40.369Z,852.93
2019-05-12T00:10:40.372Z,853.00
2019-05-12T00:11:40.354Z,853.06
2019-05-12T00:12:40.354Z,853.05
2019-05-12T00:13:40.332Z,853.08
2019-05-12T00:14:40.382Z,853.12
2019-05-12T00:15:40.344Z,853.08
2019-05-12T00:16:40.301Z,853.05
2019-05-12T00:17:40.291Z,853.12
2019-05-12T00:18:40.299Z,853.06
2019-05-12T00:19:40.267Z,853.03
2019-05-12T00:20:40.297Z,853.08
2019-05-12T00:21:40.250Z,853.10
2019-05-12T00:22:40.228Z,853.09
2019-05-12T00:23:40.225Z,853.13
2019-05-12T00:24:40.208Z,853.05
2019-05-12T00:25:40.203Z,853.05
2019-05-12T00:26:40.235Z,853.16
2019-05-12T00:27:40.196Z,853.08
2019-05-12T00:28:40.167Z,853.11
2019-05-12T00:29:40.164Z,853.17
2019-05-12T00:30:40.156Z,853.20
2019-05-12T00:31:40.135Z,853.16
2019-05-12T00:32:40.171Z,853.18
2019-05-12T00:33:40.117Z,853.21
2019-05-12T00:34:40.190Z,853.18
2019-05-12T00:35:40.094Z,853.17
2019-05-12T00:36:40.077Z,853.25
2019-05-12T00:37:40.151Z,853.24
2019-05-12T00:38:40.064Z,853.24
2019-05-12T00:39:40.050Z,853.22
2019-05-12T00:40:40.034Z,853.18
2019-05-12T00:41:40.077Z,853.24
2019-05-12T00:42:40.011Z,853.25
2019-05-12T00:43:40.024Z,853.31
2019-05-12T00:44:39.992Z,853.26
2019-05-12T00:45:40.031Z,853.22
2019-05-12T00:46:40.010Z,853.32
2019-05-12T00:47:39.961Z,853.29
2019-05-12T00:48:39.950Z,853.31
2019-05-12T00:49:39.940Z,853.35
2019-05-12T00:50:39.949Z,853.42
2019-05-12T00:51:39.955Z,853.43
2019-05-12T00:52:39.958Z,853.50
2019-05-12T00:53:43.305Z,853.49
2019-05-12T00:54:39.887Z,853.50
2019-05-12T00:55:39.880Z,853.39
2019-05-12T00:56:39.905Z,853.40
2019-05-12T00:57:39.856Z,853.48
2019-05-12T00:58:39.845Z,853.49
2019-05-12T00:59:39.888Z,853.50
2019-05-12T01:00:41.090Z,853.53
2019-05-12T01:01:39.819Z,853.51
2019-05-12T01:02:39.839Z,853.54
2019-05-12T01:03:39.794Z,853.58
2019-05-12T01:04:39.785Z,853.67
2019-05-12T01:05:39.773Z,853.58
2019-05-12T01:06:39.754Z,853.60
2019-05-12T01:07:39.782Z,853.61
2019-05-12T01:08:39.735Z,853.66
2019-05-12T01:09:39.723Z,853.68
2019-05-12T01:10:39.727Z,853.64
2019-05-12T01:11:39.705Z,853.62
2019-05-12T01:12:39.692Z,853.63
2019-05-12T01:13:39.721Z,853.70
2019-05-12T01:14:39.676Z,853.69
2019-05-12T01:15:39.671Z,853.70
2019-05-12T01:16:39.650Z,853.69
2019-05-12T01:17:40.511Z,853.67
2019-05-12T01:18:39.687Z,853.65
2019-05-12T01:19:40.531Z,853.69
2019-05-12T01:20:39.610Z,853.69
2019-05-12T01:21:39.598Z,853.70
2019-05-12T01:22:39.618Z,853.72
2019-05-12T01:23:53.328Z,853.69
2019-05-12T01:24:40.597Z,853.68
2019-05-12T01:25:40.030Z,853.74
2019-05-12T01:26:39.547Z,853.69
2019-05-12T01:27:39.526Z,853.70
2019-05-12T01:28:39.516Z,853.72
2019-05-12T01:29:39.526Z,853.67
2019-05-12T01:30:39.641Z,853.70
2019-05-12T01:31:39.558Z,853.77
2019-05-12T01:32:39.502Z,853.70
2019-05-12T01:33:39.463Z,853.72
2019-05-12T01:34:39.453Z,853.79
2019-05-12T01:35:39.463Z,853.81
2019-05-12T01:36:39.473Z,853.79
2019-05-12T01:37:39.421Z,853.82
2019-05-12T01:38:39.411Z,853.77
2019-05-12T01:39:39.463Z,853.82
2019-05-12T01:40:39.934Z,853.75
2019-05-12T01:41:39.392Z,853.76
2019-05-12T01:42:39.385Z,853.76
2019-05-12T01:43:39.352Z,853.71
2019-05-12T01:44:39.379Z,853.81
2019-05-12T01:45:39.372Z,853.86
2019-05-12T01:46:39.324Z,853.77
2019-05-12T01:47:39.388Z,853.83
2019-05-12T01:48:39.302Z,853.79
2019-05-12T01:49:39.292Z,853.79
2019-05-12T01:50:39.398Z,853.84
2019-05-12T01:51:39.308Z,853.80
2019-05-12T01:52:39.257Z,853.77
2019-05-12T01:53:39.262Z,853.83
2019-05-12T01:54:39.239Z,853.90
2019-05-12T01:55:39.354Z,853.87
2019-05-12T01:56:39.256Z,853.87
2019-05-12T01:57:39.224Z,853.87
2019-05-12T01:58:39.195Z,853.87
2019-05-12T01:59:39.179Z,853.90
2019-05-12T02:00:39.435Z,853.96
2019-05-12T02:01:39.187Z,853.94
2019-05-12T02:02:39.215Z,853.90
2019-05-12T02:03:39.172Z,853.87
2019-05-12T02:04:39.134Z,853.90
2019-05-12T02:05:39.164Z,853.86
2019-05-12T02:06:39.109Z,853.89
2019-05-12T02:07:39.101Z,853.96
2019-05-12T02:08:39.135Z,853.88
2019-05-12T02:09:39.087Z,853.85
2019-05-12T02:10:39.192Z,853.86
2019-05-12T02:11:39.099Z,853.91
2019-05-12T02:12:39.045Z,853.92
2019-05-12T02:13:39.060Z,853.92
2019-05-12T02:14:39.024Z,853.98
2019-05-12T02:15:39.030Z,853.99
2019-05-12T02:16:39.003Z,853.98
2019-05-12T02:17:39.302Z,853.98
2019-05-12T02:18:38.983Z,854.06
2019-05-12T02:19:38.979Z,854.09
2019-05-12T02:20:38.957Z,854.13
2019-05-12T02:21:38.949Z,854.12
2019-05-12T02:22:39.020Z,854.11
2019-05-12T02:23:38.965Z,854.14
2019-05-12T02:24:39.142Z,854.13
2019-05-12T02:25:38.897Z,854.12
2019-05-12T02:26:38.908Z,854.13
2019-05-12T02:27:38.888Z,854.12
2019-05-12T02:28:39.462Z,854.13
2019-05-12T02:29:38.896Z,854.13
2019-05-12T02:30:41.625Z,854.12
2019-05-12T02:31:39.993Z,854.14
2019-05-12T02:32:48.695Z,854.13
2019-05-12T02:33:39.823Z,854.06
2019-05-12T02:34:38.834Z,854.02
2019-05-12T02:35:38.834Z,854.10
2019-05-12T02:36:38.784Z,854.15
2019-05-12T02:37:38.786Z,854.13
2019-05-12T02:38:38.782Z,854.12
2019-05-12T02:39:38.782Z,854.09
2019-05-12T02:40:38.735Z,854.12
2019-05-12T02:41:38.763Z,854.17
2019-05-12T02:42:38.724Z,854.16
2019-05-12T02:43:38.708Z,854.11
2019-05-12T02:44:38.690Z,854.15
2019-05-12T02:45:38.707Z,854.09
2019-05-12T02:46:38.679Z,854.08
2019-05-12T02:47:38.957Z,854.16
2019-05-12T02:48:38.655Z,854.20
2019-05-12T02:49:38.642Z,854.19
2019-05-12T02:50:38.629Z,854.19
2019-05-12T02:51:38.622Z,854.20
2019-05-12T02:52:38.655Z,854.21
2019-05-12T02:53:38.647Z,854.22
2019-05-12T02:54:54.365Z,854.23
2019-05-12T02:55:39.582Z,854.28
2019-05-12T02:56:38.558Z,854.23
2019-05-12T02:57:38.558Z,854.29
2019-05-12T02:58:38.547Z,854.28
2019-05-12T02:59:38.568Z,854.32
2019-05-12T03:00:38.527Z,854.29
2019-05-12T03:01:38.514Z,854.31
2019-05-12T03:02:38.522Z,854.35
2019-05-12T03:03:38.495Z,854.38
2019-05-12T03:04:38.484Z,854.31
2019-05-12T03:05:38.551Z,854.30
2019-05-12T03:06:38.465Z,854.35
2019-05-12T03:07:38.454Z,854.43
2019-05-12T03:08:38.434Z,854.39
2019-05-12T03:09:38.444Z,854.37
2019-05-12T03:10:38.415Z,854.31
2019-05-12T03:11:38.444Z,854.34
2019-05-12T03:12:38.394Z,854.37
2019-05-12T03:13:38.391Z,854.45
2019-05-12T03:14:40.810Z,854.45
2019-05-12T03:15:38.359Z,854.40
2019-05-12T03:16:38.350Z,854.38
2019-05-12T03:17:38.371Z,854.37
2019-05-12T03:18:38.344Z,854.36
2019-05-12T03:19:38.321Z,854.38
2019-05-12T03:20:38.299Z,854.43
2019-05-12T03:21:38.297Z,854.43
2019-05-12T03:22:38.279Z,854.43
2019-05-12T03:23:38.302Z,854.44
2019-05-12T03:24:38.276Z,854.46
2019-05-12T03:25:38.250Z,854.51
2019-05-12T03:26:38.249Z,854.51
2019-05-12T03:27:38.231Z,854.52
2019-05-12T03:28:38.260Z,854.58
2019-05-12T03:29:38.205Z,854.54
2019-05-12T03:30:40.711Z,854.61
2019-05-12T03:31:40.758Z,854.57
2019-05-12T03:32:38.760Z,854.69
2019-05-12T03:33:44.032Z,854.64
2019-05-12T03:34:39.206Z,854.61
2019-05-12T03:35:50.180Z,854.65
2019-05-12T03:36:43.002Z,854.67
2019-05-12T03:37:39.123Z,854.75
2019-05-12T03:38:38.112Z,854.74
2019-05-12T03:39:38.104Z,854.80
2019-05-12T03:40:39.002Z,854.72
2019-05-12T03:41:38.082Z,854.76
2019-05-12T03:42:38.097Z,854.82
2019-05-12T03:43:38.059Z,854.85
2019-05-12T03:44:38.070Z,854.81
2019-05-12T03:45:38.031Z,854.73
2019-05-12T03:46:38.061Z,854.73
2019-05-12T03:47:38.019Z,854.71
2019-05-12T03:48:38.001Z,854.74
2019-05-12T03:49:38.001Z,854.73
2019-05-12T03:50:37.979Z,854.77
2019-05-12T03:51:37.968Z,854.84
2019-05-12T03:52:37.998Z,854.78
2019-05-12T03:53:37.949Z,854.79
2019-05-12T03:54:37.927Z,854.86
2019-05-12T03:55:42.133Z,854.84
2019-05-12T03:56:38.918Z,854.84
2019-05-12T03:57:37.907Z,854.89
2019-05-12T03:58:37.929Z,854.83
2019-05-12T03:59:37.877Z,854.83
2019-05-12T04:00:37.865Z,854.85
2019-05-12T04:01:37.887Z,854.90
2019-05-12T04:02:37.845Z,854.88
2019-05-12T04:03:37.843Z,854.87
2019-05-12T04:04:37.867Z,854.86
2019-05-12T04:05:37.834Z,854.92
2019-05-12T04:06:37.806Z,854.92
2019-05-12T04:07:37.802Z,854.95
2019-05-12T04:08:37.794Z,854.96
2019-05-12T04:09:37.787Z,854.93
2019-05-12T04:10:37.794Z,854.93
2019-05-12T04:11:37.742Z,854.91
2019-05-12T04:12:37.756Z,854.92
2019-05-12T04:13:37.729Z,854.90
2019-05-12T04:14:37.715Z,854.92
2019-05-12T04:15:37.705Z,854.92
2019-05-12T04:16:37.735Z,854.96
2019-05-12T04:17:37.689Z,854.99
2019-05-12T04:18:37.688Z,855.02
2019-05-12T04:19:37.660Z,855.00
2019-05-12T04:20:37.674Z,854.98
2019-05-12T04:21:37.643Z,855.00
2019-05-12T04:22:37.669Z,855.01
2019-05-12T04:23:37.635Z,855.03
2019-05-12T04:24:37.650Z,855.11
2019-05-12T04:25:50.967Z,855.03
2019-05-12T04:26:38.586Z,855.08
2019-05-12T04:27:37.587Z,855.06
2019-05-12T04:28:37.567Z,855.14
2019-05-12T04:29:37.556Z,855.13
2019-05-12T04:30:37.587Z,855.11
2019-05-12T04:31:37.594Z,855.08
2019-05-12T04:32:37.517Z,855.10
2019-05-12T04:33:37.504Z,855.10
2019-05-12T04:34:37.577Z,855.13
2019-05-12T04:35:37.539Z,855.16
2019-05-12T04:36:37.505Z,855.20
2019-05-12T04:37:37.462Z,855.17
2019-05-12T04:38:37.456Z,855.15
2019-05-12T04:39:37.454Z,855.17
2019-05-12T04:40:37.433Z,855.23
2019-05-12T04:41:37.498Z,855.24
2019-05-12T04:42:37.413Z,855.22
2019-05-12T04:43:37.402Z,855.18
2019-05-12T04:44:37.392Z,855.23
2019-05-12T04:45:37.380Z,855.20
2019-05-12T04:46:37.371Z,855.25
2019-05-12T04:47:37.403Z,855.25
2019-05-12T04:48:37.350Z,855.29
2019-05-12T04:49:37.343Z,855.33
2019-05-12T04:50:37.370Z,855.27
2019-05-12T04:51:37.319Z,855.35
2019-05-12T04:52:37.300Z,855.37
2019-05-12T04:53:37.403Z,855.37
2019-05-12T04:54:37.280Z,855.35
2019-05-12T04:55:37.278Z,855.38
2019-05-12T04:56:37.279Z,855.39
2019-05-12T04:57:37.260Z,855.43
2019-05-12T04:58:37.242Z,855.40
2019-05-12T04:59:37.265Z,855.47
2019-05-12T05:00:37.228Z,855.52
2019-05-12T05:01:37.215Z,855.50
2019-05-12T05:02:37.197Z,855.54
2019-05-12T05:03:37.183Z,855.56
2019-05-12T05:04:37.197Z,855.56
2019-05-12T05:05:37.211Z,855.50
2019-05-12T05:06:37.165Z,855.48
2019-05-12T05:07:37.152Z,855.55
2019-05-12T05:08:37.124Z,855.52
2019-05-12T05:09:37.119Z,855.53
2019-05-12T05:10:37.110Z,855.55
2019-05-12T05:11:37.155Z,855.54
2019-05-12T05:12:37.083Z,855.54
2019-05-12T05:13:39.784Z,855.50
2019-05-12T05:14:37.062Z,855.54
2019-05-12T05:15:37.123Z,855.57
2019-05-12T05:16:37.050Z,855.58
2019-05-12T05:17:37.032Z,855.59
2019-05-12T05:18:37.033Z,855.61
2019-05-12T05:19:37.010Z,855.68
2019-05-12T05:20:37.009Z,855.63
2019-05-12T05:21:37.028Z,855.66
2019-05-12T05:22:38.222Z,855.66
2019-05-12T05:23:36.969Z,855.62
2019-05-12T05:24:36.964Z,855.61
2019-05-12T05:25:36.976Z,855.61
2019-05-12T05:26:37.548Z,855.67
2019-05-12T05:27:36.965Z,855.65
2019-05-12T05:28:36.914Z,855.62
2019-05-12T05:29:37.312Z,855.67
2019-05-12T05:30:36.886Z,855.68
2019-05-12T05:31:36.885Z,855.69
2019-05-12T05:32:36.864Z,855.70
2019-05-12T05:33:36.904Z,855.68
2019-05-12T05:34:36.844Z,855.71
2019-05-12T05:35:39.653Z,855.75
2019-05-12T05:36:36.852Z,855.76
2019-05-12T05:37:41.325Z,855.75
2019-05-12T05:38:37.859Z,855.80
2019-05-12T05:39:47.945Z,855.78
2019-05-12T05:40:37.830Z,855.79
2019-05-12T05:41:40.054Z,855.82
2019-05-12T05:42:37.795Z,855.81
2019-05-12T05:43:36.790Z,855.83
2019-05-12T05:44:38.103Z,855.84
2019-05-12T05:45:36.734Z,855.84
2019-05-12T05:46:39.020Z,855.92
2019-05-12T05:47:37.709Z,855.87
2019-05-12T05:48:36.695Z,855.79
2019-05-12T05:49:36.719Z,855.83
2019-05-12T05:50:36.700Z,855.84
2019-05-12T05:51:39.512Z,855.86
2019-05-12T05:52:38.831Z,855.87
2019-05-12T05:53:36.637Z,855.91
2019-05-12T05:54:40.039Z,855.90
2019-05-12T05:55:36.664Z,855.91
2019-05-12T05:56:42.249Z,855.97
2019-05-12T05:57:37.659Z,855.98
2019-05-12T05:58:40.241Z,855.93
2019-05-12T05:59:37.617Z,855.92
2019-05-12T06:00:39.269Z,855.92
2019-05-12T06:01:40.241Z,855.93
2019-05-12T06:02:40.516Z,856.01
2019-05-12T06:03:36.536Z,855.96
2019-05-12T06:04:39.170Z,855.97
2019-05-12T06:05:38.684Z,855.99
2019-05-12T06:06:36.500Z,856.00
2019-05-12T06:07:39.132Z,856.02
2019-05-12T06:08:36.491Z,856.04
2019-05-12T06:09:36.500Z,856.04
2019-05-12T06:10:40.483Z,856.04
2019-05-12T06:11:36.490Z,856.09
2019-05-12T06:12:40.412Z,856.10
2019-05-12T06:13:40.048Z,856.11
2019-05-12T06:14:36.410Z,856.11
2019-05-12T06:15:40.579Z,856.14
2019-05-12T06:16:36.399Z,856.12
2019-05-12T06:17:36.443Z,856.14
2019-05-12T06:18:36.378Z,856.18
2019-05-12T06:19:36.356Z,856.17
2019-05-12T06:20:38.150Z,856.18
2019-05-12T06:21:38.248Z,856.21
2019-05-12T06:22:36.317Z,856.16
2019-05-12T06:23:39.140Z,856.20
2019-05-12T06:24:36.307Z,856.20
2019-05-12T06:25:46.300Z,856.22
2019-05-12T06:26:37.286Z,856.26
2019-05-12T06:27:36.295Z,856.25
2019-05-12T06:28:40.924Z,856.20
2019-05-12T06:29:37.295Z,856.15
2019-05-12T06:30:44.140Z,856.25
2019-05-12T06:31:37.233Z,856.24
2019-05-12T06:32:36.216Z,856.20
2019-05-12T06:33:36.500Z,856.28
2019-05-12T06:34:36.192Z,856.22
2019-05-12T06:35:40.647Z,856.17
2019-05-12T06:36:37.172Z,856.25
2019-05-12T06:37:36.160Z,856.25
2019-05-12T06:38:39.345Z,856.25
2019-05-12T06:39:36.141Z,856.29
2019-05-12T06:40:40.792Z,856.28
2019-05-12T06:41:37.157Z,856.27
2019-05-12T06:42:36.109Z,856.29
2019-05-12T06:43:39.567Z,856.32
2019-05-12T06:44:37.100Z,856.35
2019-05-12T06:45:41.900Z,856.37
2019-05-12T06:46:37.060Z,856.38
2019-05-12T06:47:39.298Z,856.34
2019-05-12T06:48:37.051Z,856.33
2019-05-12T06:49:36.031Z,856.39
2019-05-12T06:50:39.113Z,856.40
2019-05-12T06:51:36.017Z,856.42
2019-05-12T06:52:38.582Z,856.41
2019-05-12T06:53:37.037Z,856.39
2019-05-12T06:54:35.996Z,856.40
2019-05-12T06:55:38.998Z,856.41
2019-05-12T06:56:35.961Z,856.37
2019-05-12T06:57:39.998Z,856.39
2019-05-12T06:58:36.934Z,856.50
2019-05-12T06:59:35.963Z,856.50
2019-05-12T07:00:35.948Z,856.48
2019-05-12T07:01:35.907Z,856.53
2019-05-12T07:02:48.436Z,856.51
2019-05-12T07:03:37.390Z,856.47
2019-05-12T07:04:35.942Z,856.54
2019-05-12T07:05:38.352Z,856.53
2019-05-12T07:06:35.917Z,856.48
2019-05-12T07:07:42.125Z,856.51
2019-05-12T07:08:38.481Z,856.48
2019-05-12T07:09:53.617Z,856.48
2019-05-12T07:10:42.958Z,856.47
2019-05-12T07:11:44.870Z,856.50
2019-05-12T07:12:48.110Z,856.51
2019-05-12T07:13:36.791Z,856.50
2019-05-12T07:14:35.827Z,856.51
2019-05-12T07:15:40.354Z,856.48
2019-05-12T07:16:36.749Z,856.48
2019-05-12T07:17:43.638Z,856.58
2019-05-12T07:18:37.173Z,856.56
2019-05-12T07:19:35.705Z,856.58
2019-05-12T07:20:38.937Z,856.62
2019-05-12T07:21:35.826Z,856.61
2019-05-12T07:22:43.826Z,856.56
2019-05-12T07:23:36.666Z,856.56
2019-05-12T07:24:35.656Z,856.56
2019-05-12T07:25:36.806Z,856.60
2019-05-12T07:26:35.692Z,856.60
2019-05-12T07:27:39.589Z,856.56
2019-05-12T07:28:40.172Z,856.58
2019-05-12T07:29:35.602Z,856.59
2019-05-12T07:30:35.641Z,856.60
2019-05-12T07:31:35.613Z,856.62
2019-05-12T07:32:35.571Z,856.63
2019-05-12T07:33:41.446Z,856.64
2019-05-12T07:34:36.556Z,856.68
2019-05-12T07:35:35.547Z,856.73
2019-05-12T07:36:35.566Z,856.77
2019-05-12T07:37:35.522Z,856.78
2019-05-12T07:38:35.524Z,856.83
2019-05-12T07:39:36.996Z,856.80
2019-05-12T07:40:37.789Z,856.82
2019-05-12T07:41:35.507Z,856.84
2019-05-12T07:42:39.342Z,856.82
2019-05-12T07:43:35.457Z,856.84
2019-05-12T07:44:40.100Z,856.82
2019-05-12T07:45:36.466Z,856.86
2019-05-12T07:46:39.798Z,856.90
2019-05-12T07:47:36.425Z,856.88
2019-05-12T07:48:40.315Z,856.89
2019-05-12T07:49:38.565Z,856.86
2019-05-12T07:50:35.379Z,856.90
2019-05-12T07:51:40.484Z,856.93
2019-05-12T07:52:36.393Z,856.93
2019-05-12T07:53:35.374Z,857.00
2019-05-12T07:54:39.339Z,856.94
2019-05-12T07:55:39.789Z,857.01
2019-05-12T07:56:36.332Z,856.99
2019-05-12T07:57:50.779Z,856.94
2019-05-12T07:58:41.028Z,856.98
2019-05-12T07:59:40.930Z,856.94
2019-05-12T08:00:35.272Z,856.97
2019-05-12T08:01:44.747Z,856.94
2019-05-12T08:02:36.240Z,856.98
2019-05-12T08:03:35.246Z,856.98
2019-05-12T08:04:39.819Z,856.99
2019-05-12T08:05:36.209Z,857.01
2019-05-12T08:06:41.836Z,857.08
2019-05-12T08:07:36.190Z,857.04
2019-05-12T08:08:35.179Z,857.09
2019-05-12T08:09:36.497Z,857.10
2019-05-12T08:10:35.160Z,857.07
2019-05-12T08:11:38.664Z,857.10
2019-05-12T08:12:35.176Z,857.09
2019-05-12T08:13:37.848Z,857.07
2019-05-12T08:14:36.114Z,857.05
2019-05-12T08:15:35.136Z,857.08
2019-05-12T08:16:36.952Z,857.10
2019-05-12T08:17:35.116Z,857.19
2019-05-12T08:18:37.081Z,857.19
2019-05-12T08:19:36.054Z,857.20
2019-05-12T08:20:35.045Z,857.23
2019-05-12T08:21:43.738Z,857.19
2019-05-12T08:22:36.065Z,857.18
2019-05-12T08:23:37.752Z,857.17
2019-05-12T08:24:42.867Z,857.23
2019-05-12T08:25:35.997Z,857.17
2019-05-12T08:26:35.023Z,857.21
2019-05-12T08:27:39.218Z,857.29
2019-05-12T08:28:40.406Z,857.29
2019-05-12T08:29:34.953Z,857.33
2019-05-12T08:30:34.982Z,857.26
2019-05-12T08:31:40.338Z,857.30
2019-05-12T08:32:35.950Z,857.36
2019-05-12T08:33:34.925Z,857.39
2019-05-12T08:34:34.890Z,857.36
2019-05-12T08:35:38.036Z,857.38
2019-05-12T08:36:34.920Z,857.42
2019-05-12T08:37:34.871Z,857.39
2019-05-12T08:38:34.865Z,857.28
2019-05-12T08:39:34.859Z,857.42
2019-05-12T08:40:39.907Z,857.48
2019-05-12T08:41:35.859Z,857.45
2019-05-12T08:42:34.817Z,857.46
2019-05-12T08:43:34.798Z,857.46
2019-05-12T08:44:40.448Z,857.47
2019-05-12T08:45:37.481Z,857.57
2019-05-12T08:46:34.779Z,857.50
2019-05-12T08:47:38.786Z,857.52
2019-05-12T08:48:34.747Z,857.52
2019-05-12T08:49:49.855Z,857.53
2019-05-12T08:50:36.239Z,857.56
2019-05-12T08:51:34.724Z,857.64
2019-05-12T08:52:37.218Z,857.63
2019-05-12T08:53:35.743Z,857.62
2019-05-12T08:54:34.673Z,857.70
2019-05-12T08:55:35.872Z,857.71
2019-05-12T08:56:34.671Z,857.78
2019-05-12T08:57:40.914Z,857.71
2019-05-12T08:58:47.177Z,857.71
2019-05-12T08:59:35.659Z,857.76
2019-05-12T09:00:39.658Z,857.76
2019-05-12T09:01:35.612Z,857.78
2019-05-12T09:02:34.615Z,857.75
2019-05-12T09:03:34.636Z,857.76
2019-05-12T09:04:34.573Z,857.84
2019-05-12T09:05:38.283Z,857.88
2019-05-12T09:06:34.565Z,857.86
2019-05-12T09:07:35.800Z,857.91
2019-05-12T09:08:44.021Z,857.88
2019-05-12T09:09:35.563Z,857.93
2019-05-12T09:10:34.586Z,857.96
2019-05-12T09:11:34.495Z,857.93
2019-05-12T09:12:34.486Z,858.02
2019-05-12T09:13:34.477Z,858.02
2019-05-12T09:14:41.118Z,858.02
2019-05-12T09:15:35.446Z,858.08
2019-05-12T09:16:34.447Z,858.08
2019-05-12T09:17:37.388Z,858.13
2019-05-12T09:18:39.234Z,858.02
2019-05-12T09:19:34.413Z,858.12
2019-05-12T09:20:39.424Z,858.15
2019-05-12T09:21:37.171Z,858.15
2019-05-12T09:22:34.433Z,858.19
2019-05-12T09:23:40.934Z,858.17
2019-05-12T09:24:35.352Z,858.20
2019-05-12T09:25:39.043Z,858.23
2019-05-12T09:26:35.340Z,858.24
2019-05-12T09:27:34.321Z,858.25
2019-05-12T09:28:46.341Z,858.26
2019-05-12T09:29:35.311Z,858.35
2019-05-12T09:30:34.289Z,858.35
2019-05-12T09:31:34.381Z,858.39
2019-05-12T09:32:34.291Z,858.43
2019-05-12T09:33:34.828Z,858.49
2019-05-12T09:34:34.250Z,858.46
2019-05-12T09:35:39.067Z,858.42
2019-05-12T09:36:35.268Z,858.41
2019-05-12T09:37:39.047Z,858.40
2019-05-12T09:38:35.251Z,858.40
2019-05-12T09:39:42.595Z,858.50
2019-05-12T09:40:35.846Z,858.49
2019-05-12T09:41:42.745Z,858.47
2019-05-12T09:42:35.207Z,858.50
2019-05-12T09:43:34.449Z,858.54
2019-05-12T09:44:34.247Z,858.54
2019-05-12T09:45:34.127Z,858.63
2019-05-12T09:46:37.495Z,858.59
2019-05-12T09:47:34.399Z,858.64
2019-05-12T09:48:34.135Z,858.58
2019-05-12T09:49:39.216Z,858.62
2019-05-12T09:50:35.074Z,858.64
2019-05-12T09:51:41.498Z,858.60
2019-05-12T09:52:35.055Z,858.59
2019-05-12T09:53:34.258Z,858.61
2019-05-12T09:54:40.649Z,858.64
2019-05-12T09:55:35.033Z,858.67
2019-05-12T09:56:34.317Z,858.66
2019-05-12T09:57:40.846Z,858.67
2019-05-12T09:58:34.982Z,858.74
2019-05-12T09:59:33.982Z,858.71
2019-05-12T10:00:35.761Z,858.74
2019-05-12T10:01:35.352Z,858.75
2019-05-12T10:02:33.950Z,858.73
2019-05-12T10:03:39.052Z,858.72
2019-05-12T10:04:34.921Z,858.76
2019-05-12T10:05:37.556Z,858.72
2019-05-12T10:06:34.979Z,858.73
2019-05-12T10:07:34.036Z,858.77
2019-05-12T10:08:35.847Z,858.81
2019-05-12T10:09:33.885Z,858.75
2019-05-12T10:10:40.112Z,858.78
2019-05-12T10:11:34.839Z,858.84
2019-05-12T10:12:36.617Z,858.89
2019-05-12T10:13:34.842Z,858.94
2019-05-12T10:14:33.825Z,858.90
2019-05-12T10:15:33.867Z,858.88
2019-05-12T10:16:33.843Z,858.90
2019-05-12T10:17:34.107Z,858.90
2019-05-12T10:18:33.794Z,858.93
2019-05-12T10:19:34.086Z,858.93
2019-05-12T10:20:39.479Z,858.86
2019-05-12T10:21:36.059Z,858.88
2019-05-12T10:22:37.768Z,858.96
2019-05-12T10:23:34.731Z,858.92
2019-05-12T10:24:41.527Z,858.92
2019-05-12T10:25:35.508Z,858.89
2019-05-12T10:26:34.277Z,858.90
2019-05-12T10:27:34.546Z,858.88
2019-05-12T10:28:33.680Z,858.91
2019-05-12T10:29:33.652Z,858.86
2019-05-12T10:30:34.321Z,858.91
2019-05-12T10:31:35.793Z,858.98
2019-05-12T10:32:34.670Z,858.88
2019-05-12T10:33:33.874Z,858.81
2019-05-12T10:34:35.977Z,858.88
2019-05-12T10:35:35.254Z,858.85
2019-05-12T10:36:33.793Z,858.91
2019-05-12T10:37:33.569Z,858.95
2019-05-12T10:38:34.358Z,858.96
2019-05-12T10:39:33.629Z,858.98
2019-05-12T10:40:33.968Z,858.97
2019-05-12T10:41:34.247Z,858.96
2019-05-12T10:42:33.725Z,858.95
2019-05-12T10:43:34.221Z,858.90
2019-05-12T10:44:39.177Z,858.92
2019-05-12T10:45:34.479Z,858.89
2019-05-12T10:46:33.465Z,858.87
2019-05-12T10:47:34.340Z,858.90
2019-05-12T10:48:33.858Z,858.90
2019-05-12T10:49:33.795Z,858.88
2019-05-12T10:50:34.113Z,858.89
2019-05-12T10:51:34.341Z,858.90
2019-05-12T10:52:35.100Z,858.95
2019-05-12T10:53:34.450Z,858.91
2019-05-12T10:54:34.279Z,858.90
2019-05-12T10:55:33.772Z,858.89
2019-05-12T10:56:34.787Z,858.84
2019-05-12T10:57:33.471Z,858.91
2019-05-12T10:58:33.670Z,858.87
2019-05-12T10:59:38.550Z,858.87
2019-05-12T11:00:34.352Z,858.93
2019-05-12T11:01:33.310Z,858.93
2019-05-12T11:02:33.676Z,858.93
2019-05-12T11:03:33.733Z,858.95
2019-05-12T11:04:38.954Z,858.91
2019-05-12T11:05:34.417Z,858.91
2019-05-12T11:06:34.051Z,858.91
2019-05-12T11:07:34.067Z,858.98
2019-05-12T11:08:33.367Z,858.93
2019-05-12T11:09:34.575Z,858.95
2019-05-12T11:10:33.208Z,858.84
2019-05-12T11:11:42.337Z,858.86
2019-05-12T11:12:34.218Z,858.83
2019-05-12T11:13:33.819Z,858.87
2019-05-12T11:14:34.189Z,858.88
2019-05-12T11:15:34.339Z,858.92
2019-05-12T11:16:35.012Z,858.92
2019-05-12T11:17:33.554Z,858.88
2019-05-12T11:18:34.030Z,858.93
2019-05-12T11:19:33.744Z,858.93
2019-05-12T11:20:34.306Z,858.96
2019-05-12T11:21:33.648Z,858.92
2019-05-12T11:22:33.372Z,858.94
2019-05-12T11:23:34.490Z,858.98
2019-05-12T11:24:33.733Z,859.00
2019-05-12T11:25:33.951Z,859.00
2019-05-12T11:26:33.072Z,858.98
2019-05-12T11:27:34.533Z,859.03
2019-05-12T11:28:33.705Z,858.98
2019-05-12T11:29:45.550Z,858.92
2019-05-12T11:30:34.693Z,858.98
2019-05-12T11:31:33.481Z,858.93
2019-05-12T11:32:36.395Z,858.95
2019-05-12T11:33:34.115Z,858.97
2019-05-12T11:34:33.555Z,858.95
2019-05-12T11:35:32.927Z,858.97
2019-05-12T11:36:34.460Z,859.02
2019-05-12T11:37:33.799Z,859.04
2019-05-12T11:38:33.636Z,859.08
2019-05-12T11:39:36.673Z,859.05
2019-05-12T11:40:34.659Z,859.03
2019-05-12T11:41:33.331Z,859.05
2019-05-12T11:42:33.635Z,858.98
2019-05-12T11:43:33.724Z,858.97
2019-05-12T11:44:33.704Z,859.06
2019-05-12T11:45:33.557Z,859.03
2019-05-12T11:46:36.186Z,859.04
2019-05-12T11:47:34.650Z,859.00
2019-05-12T11:48:33.842Z,859.03
2019-05-12T11:49:33.358Z,858.97
2019-05-12T11:50:32.762Z,858.98
2019-05-12T11:51:34.083Z,858.99
2019-05-12T11:52:33.397Z,858.94
2019-05-12T11:53:34.875Z,858.94
2019-05-12T11:54:33.522Z,858.91
2019-05-12T11:55:34.818Z,858.93
2019-05-12T11:56:33.654Z,858.94
2019-05-12T11:57:34.093Z,858.92
2019-05-12T11:58:33.490Z,858.94
2019-05-12T11:59:34.141Z,858.97
2019-05-12T12:00:33.618Z,858.95
2019-05-12T12:01:34.549Z,858.98
2019-05-12T12:02:34.259Z,859.03
2019-05-12T12:03:33.657Z,859.07
2019-05-12T12:04:34.049Z,859.01
2019-05-12T12:05:33.824Z,859.02
2019-05-12T12:06:33.155Z,859.07
2019-05-12T12:07:33.262Z,859.06
2019-05-12T12:08:36.986Z,859.04
2019-05-12T12:09:32.565Z,858.99
2019-05-12T12:10:35.406Z,859.07
2019-05-12T12:11:34.241Z,859.02
2019-05-12T12:12:34.488Z,859.06
2019-05-12T12:13:33.643Z,859.07
2019-05-12T12:14:34.493Z,859.07
2019-05-12T12:15:34.472Z,859.12
2019-05-12T12:16:34.093Z,859.05
2019-05-12T12:17:35.508Z,859.02
2019-05-12T12:18:33.805Z,859.02
2019-05-12T12:19:37.809Z,859.05
2019-05-12T12:20:33.892Z,859.05
2019-05-12T12:21:34.948Z,859.01
2019-05-12T12:22:33.957Z,859.03
2019-05-12T12:23:33.468Z,859.10
2019-05-12T12:24:32.416Z,859.05
2019-05-12T12:25:34.232Z,859.05
2019-05-12T12:26:34.903Z,859.06
2019-05-12T12:27:32.364Z,859.04
2019-05-12T12:28:34.311Z,859.10